createdAt,value
2019-05-18T00:02:30.253Z,13.90
2019-05-18T00:04:59.607Z,14.50
2019-05-18T00:07:28.940Z,13.83
2019-05-18T00:09:58.279Z,13.67
2019-05-18T00:12:46.964Z,13.40
2019-05-18T00:15:16.436Z,14.57
2019-05-18T00:18:11.033Z,14.03
2019-05-18T00:20:52.472Z,13.40
2019-05-18T00:23:33.739Z,14.73
2019-05-18T00:26:15.378Z,14.97
2019-05-18T00:28:57.363Z,14.00
2019-05-18T00:31:26.697Z,14.50
2019-05-18T00:33:56.036Z,14.23
2019-05-18T00:36:37.938Z,15.93
2019-05-18T00:39:19.432Z,14.77
2019-05-18T00:41:48.784Z,12.27
2019-05-18T00:44:37.463Z,14.20
2019-05-18T00:47:18.452Z,14.10
2019-05-18T00:50:00.677Z,14.60
2019-05-18T00:52:42.399Z,14.17
2019-05-18T00:55:12.132Z,13.67
2019-05-18T00:57:41.477Z,13.77
2019-05-18T01:03:32.459Z,13.53
2019-05-18T01:06:01.824Z,12.87
2019-05-18T01:08:31.182Z,13.83
2019-05-18T01:11:20.076Z,13.73
2019-05-18T01:14:01.159Z,12.83
2019-05-18T01:16:30.490Z,14.10
2019-05-18T01:19:19.460Z,13.80
2019-05-18T01:21:48.801Z,14.87
2019-05-18T01:24:18.140Z,14.87
2019-05-18T01:26:59.552Z,15.07
2019-05-18T01:29:28.890Z,21.47
2019-05-18T01:32:17.353Z,18.90
2019-05-18T01:34:46.698Z,16.20
2019-05-18T01:37:16.035Z,16.60
2019-05-18T01:39:45.385Z,18.77
2019-05-18T01:42:14.749Z,18.03
2019-05-18T01:44:56.925Z,17.63
2019-05-18T01:47:38.021Z,18.33
2019-05-18T01:50:19.177Z,15.43
2019-05-18T01:53:00.315Z,18.13
2019-05-18T01:55:29.656Z,17.10
2019-05-18T01:58:10.861Z,16.10
2019-05-18T02:00:40.215Z,17.73
2019-05-18T02:03:09.561Z,15.70
2019-05-18T02:05:51.541Z,16.30
2019-05-18T02:08:32.997Z,16.13
2019-05-18T02:11:02.375Z,16.27
2019-05-18T02:13:32.017Z,18.20
2019-05-18T02:16:01.373Z,16.80
2019-05-18T02:18:50.053Z,15.67
2019-05-18T02:21:19.404Z,15.80
2019-05-18T02:24:08.094Z,15.43
2019-05-18T02:26:49.506Z,15.43
2019-05-18T02:29:30.965Z,14.93
2019-05-18T02:32:00.319Z,15.67
2019-05-18T02:34:48.998Z,16.10
2019-05-18T02:37:30.224Z,14.67
2019-05-18T02:40:11.322Z,15.20
2019-05-18T02:42:40.750Z,16.43
2019-05-18T02:45:29.473Z,14.37
2019-05-18T02:47:58.824Z,14.97
2019-05-18T02:50:47.253Z,14.90
2019-05-18T02:53:29.405Z,14.27
2019-05-18T02:55:58.715Z,13.70
2019-05-18T02:58:39.913Z,14.10
2019-05-18T03:01:09.242Z,14.10
2019-05-18T03:03:57.964Z,13.40
2019-05-18T03:06:39.065Z,14.43
2019-05-18T03:09:08.483Z,11.90
2019-05-18T03:11:37.885Z,12.40
2019-05-18T03:14:07.226Z,14.03
2019-05-18T03:16:55.916Z,12.43
2019-05-18T03:19:44.596Z,13.80
2019-05-18T03:22:31.455Z,13.67
2019-05-18T03:25:00.802Z,12.13
2019-05-18T03:27:30.146Z,12.63
2019-05-18T03:29:59.521Z,12.73
2019-05-18T03:32:28.850Z,12.30
2019-05-18T03:34:58.192Z,12.80
2019-05-18T03:37:27.542Z,12.60
2019-05-18T03:39:56.878Z,12.60
2019-05-18T03:42:26.226Z,14.17
2019-05-18T03:44:55.587Z,12.30
2019-05-18T03:47:24.910Z,12.50
2019-05-18T03:49:55.030Z,12.03
2019-05-18T03:52:24.654Z,13.37
2019-05-18T03:54:53.996Z,11.50
2019-05-18T03:57:23.348Z,13.00
2019-05-18T03:59:52.984Z,13.70
2019-05-18T04:02:22.329Z,11.87
2019-05-18T04:04:51.677Z,12.43
2019-05-18T04:07:21.016Z,12.17
2019-05-18T04:09:50.352Z,12.60
2019-05-18T04:12:19.706Z,12.70
2019-05-18T04:14:49.036Z,12.47
2019-05-18T04:17:18.441Z,12.63
2019-05-18T04:19:47.813Z,13.03
2019-05-18T04:22:17.294Z,12.17
2019-05-18T04:24:46.637Z,12.17
2019-05-18T04:27:16.030Z,12.33
2019-05-18T04:29:45.366Z,12.40
2019-05-18T04:32:14.731Z,13.80
2019-05-18T04:34:44.081Z,15.40
2019-05-18T04:37:14.402Z,15.07
2019-05-18T04:39:43.756Z,15.23
2019-05-18T04:42:13.453Z,15.23
2019-05-18T04:44:42.765Z,15.00
2019-05-18T04:47:12.126Z,15.07
2019-05-18T04:49:41.374Z,15.30
2019-05-18T04:52:10.727Z,14.90
2019-05-18T04:54:40.143Z,15.13
2019-05-18T04:57:09.733Z,14.40
2019-05-18T04:59:39.081Z,15.27
2019-05-18T05:02:08.434Z,14.70
2019-05-18T05:04:37.756Z,15.43
2019-05-18T05:07:07.109Z,15.00
2019-05-18T05:09:36.440Z,17.50
2019-05-18T05:12:05.936Z,17.70
2019-05-18T05:14:35.276Z,17.67
2019-05-18T05:17:04.622Z,18.13
2019-05-18T05:19:33.965Z,17.37
2019-05-18T05:22:03.322Z,17.70
2019-05-18T05:24:32.871Z,19.23
2019-05-18T05:27:02.213Z,19.00
2019-05-18T05:29:31.574Z,19.40
2019-05-18T05:32:00.907Z,14.30
2019-05-18T05:34:30.237Z,16.30
2019-05-18T05:36:59.616Z,15.27
2019-05-18T05:39:28.948Z,15.60
2019-05-18T05:41:58.282Z,14.80
2019-05-18T05:44:27.640Z,15.23
2019-05-18T05:46:56.975Z,14.67
2019-05-18T05:49:26.382Z,15.07
2019-05-18T05:51:55.732Z,14.70
2019-05-18T05:54:25.069Z,14.80
2019-05-18T05:56:54.404Z,14.50
2019-05-18T05:59:23.760Z,16.10
2019-05-18T06:01:53.100Z,15.73
2019-05-18T06:04:22.437Z,16.57
2019-05-18T06:06:51.788Z,15.30
2019-05-18T06:09:21.131Z,14.77
2019-05-18T06:11:50.473Z,16.67
2019-05-18T06:14:19.871Z,16.30
2019-05-18T06:16:49.538Z,15.00
2019-05-18T06:19:18.875Z,15.10
2019-05-18T06:21:48.330Z,15.70
2019-05-18T06:24:17.682Z,14.47
2019-05-18T06:26:47.054Z,14.00
2019-05-18T06:29:16.388Z,14.70
2019-05-18T06:31:45.774Z,15.30
2019-05-18T06:34:15.099Z,15.40
2019-05-18T06:36:44.438Z,15.17
2019-05-18T06:39:13.776Z,15.50
2019-05-18T06:41:43.128Z,15.27
2019-05-18T06:44:12.453Z,15.60
2019-05-18T06:46:41.786Z,14.47
2019-05-18T06:49:11.131Z,14.80
2019-05-18T06:51:40.462Z,15.20
2019-05-18T06:54:09.863Z,14.30
2019-05-18T06:56:40.447Z,14.90
2019-05-18T06:59:10.518Z,14.53
2019-05-18T07:01:39.868Z,14.10
2019-05-18T07:04:09.484Z,14.50
2019-05-18T07:06:38.816Z,16.33
2019-05-18T07:09:13.784Z,15.77
2019-05-18T07:11:39.750Z,16.57
2019-05-18T07:14:09.195Z,17.40
2019-05-18T07:16:38.932Z,14.27
2019-05-18T07:19:08.277Z,15.63
2019-05-18T07:21:37.618Z,13.80
2019-05-18T07:24:06.968Z,15.33
2019-05-18T07:26:36.665Z,16.73
2019-05-18T07:29:07.881Z,16.33
2019-05-18T07:31:37.476Z,17.57
2019-05-18T07:34:06.785Z,18.83
2019-05-18T07:36:36.125Z,17.90
2019-05-18T07:39:06.893Z,17.67
2019-05-18T07:41:46.238Z,18.20
2019-05-18T07:44:07.599Z,16.97
2019-05-18T07:46:36.949Z,16.53
2019-05-18T07:49:06.291Z,18.23
2019-05-18T07:51:37.366Z,17.13
2019-05-18T07:54:06.876Z,19.30
2019-05-18T07:56:36.221Z,17.73
2019-05-18T07:59:05.557Z,17.60
2019-05-18T08:01:34.888Z,17.47
2019-05-18T08:04:04.277Z,18.10
2019-05-18T08:06:34.067Z,17.60
2019-05-18T08:09:04.800Z,19.53
2019-05-18T08:11:34.133Z,18.40
2019-05-18T08:14:03.487Z,17.00
2019-05-18T08:16:32.812Z,17.63
2019-05-18T08:19:02.156Z,17.80
2019-05-18T08:21:31.519Z,18.50
2019-05-18T08:24:00.848Z,18.47
2019-05-18T08:26:30.181Z,18.07
2019-05-18T08:28:59.517Z,17.97
2019-05-18T08:31:31.128Z,19.80
2019-05-18T08:34:07.104Z,18.80
2019-05-18T08:36:36.568Z,19.87
2019-05-18T08:39:06.514Z,18.50
2019-05-18T08:41:35.890Z,19.90
2019-05-18T08:44:05.288Z,19.37
2019-05-18T08:46:34.623Z,20.27
2019-05-18T08:49:04.039Z,23.33
2019-05-18T08:51:34.455Z,21.57
2019-05-18T08:54:03.810Z,21.00
2019-05-18T08:56:33.136Z,23.30
2019-05-18T08:59:02.485Z,23.30
2019-05-18T09:01:31.824Z,21.40
2019-05-18T09:04:01.177Z,20.30
2019-05-18T09:06:30.574Z,21.80
2019-05-18T09:09:00.228Z,25.40
2019-05-18T09:11:29.728Z,22.07
2019-05-18T09:13:59.068Z,22.17
2019-05-18T09:16:28.422Z,21.17
2019-05-18T09:18:57.755Z,19.60
2019-05-18T09:21:27.102Z,19.77
2019-05-18T09:23:56.428Z,20.90
2019-05-18T09:26:25.711Z,18.73
2019-05-18T09:28:55.040Z,19.40
2019-05-18T09:31:24.369Z,18.10
2019-05-18T09:33:53.719Z,16.03
2019-05-18T09:36:23.117Z,20.00
2019-05-18T09:38:52.477Z,17.87
2019-05-18T09:41:22.046Z,18.90
2019-05-18T09:43:51.409Z,20.10
2019-05-18T09:46:20.717Z,17.47
2019-05-18T09:48:50.051Z,17.70
2019-05-18T09:51:19.391Z,18.97
2019-05-18T09:53:51.648Z,19.30
2019-05-18T09:56:38.858Z,17.50
2019-05-18T09:59:08.206Z,19.73
2019-05-18T10:01:37.544Z,18.67
2019-05-18T10:04:06.888Z,20.50
2019-05-18T10:06:36.218Z,18.10
2019-05-18T10:09:08.106Z,21.27
2019-05-18T10:11:38.603Z,19.53
2019-05-18T10:14:08.247Z,20.87
2019-05-18T10:16:37.576Z,19.07
2019-05-18T10:19:06.912Z,20.37
2019-05-18T10:21:36.260Z,19.80
2019-05-18T10:24:05.596Z,19.50
2019-05-18T10:26:35.202Z,17.87
2019-05-18T10:29:04.614Z,18.50
2019-05-18T10:31:33.943Z,19.43
2019-05-18T10:34:03.393Z,18.67
2019-05-18T10:36:32.738Z,18.03
2019-05-18T10:39:02.327Z,18.33
2019-05-18T10:41:31.931Z,17.07
2019-05-18T10:44:01.276Z,18.60
2019-05-18T10:46:30.605Z,18.07
2019-05-18T10:48:59.935Z,18.17
2019-05-18T10:51:29.279Z,16.57
2019-05-18T10:53:58.618Z,18.83
2019-05-18T10:56:31.124Z,17.73
2019-05-18T10:58:58.996Z,18.33
2019-05-18T11:01:28.331Z,17.33
2019-05-18T11:03:57.663Z,14.40
2019-05-18T11:06:27.016Z,14.07
2019-05-18T11:08:56.344Z,13.80
2019-05-18T11:11:25.677Z,14.53
2019-05-18T11:13:55.040Z,14.80
2019-05-18T11:16:24.353Z,14.93
2019-05-18T11:18:53.689Z,15.30
2019-05-18T11:21:23.033Z,13.40
2019-05-18T11:23:52.375Z,14.20
2019-05-18T11:26:21.700Z,14.77
2019-05-18T11:28:51.046Z,14.80
2019-05-18T11:31:20.700Z,13.63
2019-05-18T11:33:50.031Z,14.30
2019-05-18T11:36:19.472Z,13.90
2019-05-18T11:38:48.875Z,12.03
2019-05-18T11:41:18.207Z,12.57
2019-05-18T11:43:47.553Z,11.30
2019-05-18T11:46:16.885Z,12.20
2019-05-18T11:48:46.223Z,13.17
2019-05-18T11:51:15.571Z,13.77
2019-05-18T11:53:57.460Z,15.03
2019-05-18T11:56:15.928Z,13.20
2019-05-18T11:58:45.276Z,13.50
2019-05-18T12:01:14.609Z,12.97
2019-05-18T12:03:43.946Z,11.90
2019-05-18T12:06:13.298Z,14.87
2019-05-18T12:08:42.636Z,14.37
2019-05-18T12:11:11.968Z,15.70
2019-05-18T12:13:41.571Z,13.87
2019-05-18T12:16:10.907Z,13.00
2019-05-18T12:18:40.234Z,12.53
2019-05-18T12:21:10.021Z,13.33
2019-05-18T12:23:39.339Z,12.97
2019-05-18T12:26:08.672Z,12.00
2019-05-18T12:28:38.075Z,10.77
2019-05-18T12:31:07.413Z,10.80
2019-05-18T12:33:36.747Z,10.47
2019-05-18T12:36:07.836Z,11.43
2019-05-18T12:38:37.181Z,10.93
2019-05-18T12:41:06.520Z,12.47
2019-05-18T12:43:35.994Z,11.10
2019-05-18T12:46:05.281Z,10.67
2019-05-18T12:48:34.998Z,10.80
2019-05-18T12:51:04.374Z,12.10
2019-05-18T12:53:33.707Z,11.33
2019-05-18T12:56:03.047Z,12.13
2019-05-18T12:58:32.375Z,12.57
2019-05-18T13:01:01.782Z,11.90
2019-05-18T13:03:31.055Z,12.17
2019-05-18T13:06:00.943Z,11.83
2019-05-18T13:08:30.289Z,11.43
2019-05-18T13:10:59.623Z,13.07
2019-05-18T13:13:28.979Z,12.30
2019-05-18T13:15:58.323Z,12.23
2019-05-18T13:18:29.360Z,13.93
2019-05-18T13:20:58.704Z,12.10
2019-05-18T13:23:28.034Z,11.17
2019-05-18T13:25:57.368Z,9.03
2019-05-18T13:28:26.775Z,8.87
2019-05-18T13:30:56.693Z,8.63
2019-05-18T13:33:26.401Z,8.33
2019-05-18T13:35:56.213Z,8.10
2019-05-18T13:38:25.530Z,7.10
2019-05-18T13:40:56.701Z,7.40
2019-05-18T13:43:26.091Z,6.80
2019-05-18T13:45:55.432Z,6.10
2019-05-18T13:48:24.746Z,6.43
2019-05-18T13:50:54.064Z,6.30
2019-05-18T13:53:23.399Z,6.63
2019-05-18T13:55:52.730Z,9.10
2019-05-18T13:58:23.707Z,7.10
2019-05-18T14:00:53.365Z,6.30
2019-05-18T14:03:22.685Z,6.13
2019-05-18T14:05:52.017Z,5.67
2019-05-18T14:08:21.335Z,5.33
2019-05-18T14:10:50.658Z,5.97
2019-05-18T14:13:19.996Z,6.00
2019-05-18T14:15:49.327Z,5.90
2019-05-18T14:18:18.654Z,6.90
2019-05-18T14:20:47.985Z,5.50
2019-05-18T14:23:17.308Z,5.90
2019-05-18T14:25:46.629Z,6.33
2019-05-18T14:28:15.978Z,6.10
2019-05-18T14:30:45.367Z,5.90
2019-05-18T14:33:14.691Z,6.80
2019-05-18T14:35:44.017Z,6.70
2019-05-18T14:38:13.349Z,6.50
2019-05-18T14:40:42.673Z,6.80
2019-05-18T14:43:12.282Z,6.03
2019-05-18T14:45:41.899Z,7.00
2019-05-18T14:48:11.226Z,6.90
2019-05-18T14:50:40.639Z,6.57
2019-05-18T14:53:09.948Z,6.53
2019-05-18T14:55:39.584Z,7.80
2019-05-18T14:58:08.931Z,7.67
2019-05-18T15:00:39.512Z,7.17
2019-05-18T15:03:10.586Z,6.30
2019-05-18T15:05:39.914Z,5.57
2019-05-18T15:08:09.912Z,6.50
2019-05-18T15:10:39.252Z,7.70
2019-05-18T15:13:08.578Z,6.50
2019-05-18T15:15:37.918Z,6.90
2019-05-18T15:18:07.312Z,6.73
2019-05-18T15:20:36.592Z,6.53
2019-05-18T15:23:05.915Z,6.80
2019-05-18T15:25:49.616Z,7.40
2019-05-18T15:28:06.531Z,8.50
2019-05-18T15:30:35.931Z,7.40
2019-05-18T15:33:05.301Z,7.23
2019-05-18T15:35:34.599Z,6.70
2019-05-18T15:38:03.929Z,7.37
2019-05-18T15:40:33.296Z,6.80
2019-05-18T15:43:02.598Z,8.40
2019-05-18T15:45:31.925Z,7.30
2019-05-18T15:48:01.329Z,7.87
2019-05-18T15:50:30.984Z,7.80
2019-05-18T15:53:00.331Z,7.63
2019-05-18T15:55:29.668Z,9.03
2019-05-18T15:57:59.003Z,8.20
2019-05-18T16:00:28.418Z,7.60
2019-05-18T16:02:57.988Z,7.47
2019-05-18T16:05:27.341Z,8.30
2019-05-18T16:07:56.675Z,7.17
2019-05-18T16:10:26.147Z,6.10
2019-05-18T16:12:55.489Z,7.20
2019-05-18T16:15:24.899Z,7.43
2019-05-18T16:17:54.244Z,6.50
2019-05-18T16:20:23.955Z,6.07
2019-05-18T16:22:53.333Z,7.30
2019-05-18T16:28:24.926Z,11.47
2019-05-18T16:30:54.269Z,7.53
2019-05-18T16:33:23.593Z,8.73
2019-05-18T16:35:52.931Z,8.10
2019-05-18T16:38:22.260Z,8.80
2019-05-18T16:40:51.955Z,8.43
2019-05-18T16:43:21.275Z,8.43
2019-05-18T16:45:50.639Z,9.73
2019-05-18T16:48:19.969Z,9.37
2019-05-18T16:50:49.317Z,8.53
2019-05-18T16:53:18.883Z,8.03
2019-05-18T16:55:48.240Z,9.70
2019-05-18T16:58:17.595Z,8.50
2019-05-18T17:00:46.909Z,8.20
2019-05-18T17:03:16.240Z,7.90
2019-05-18T17:05:45.578Z,7.80
2019-05-18T17:08:14.898Z,8.50
2019-05-18T17:10:44.235Z,9.27
2019-05-18T17:13:13.570Z,9.10
2019-05-18T17:18:57.993Z,9.73
2019-05-18T17:21:27.336Z,9.40
2019-05-18T17:23:56.694Z,8.93
2019-05-18T17:26:26.253Z,9.67
2019-05-18T17:28:55.648Z,8.60
2019-05-18T17:31:24.984Z,8.27
2019-05-18T17:33:54.306Z,8.73
2019-05-18T17:36:23.899Z,7.80
2019-05-18T17:39:12.314Z,7.60
2019-05-18T17:41:41.652Z,7.80
2019-05-18T17:44:10.979Z,8.43
2019-05-18T17:46:40.305Z,7.10
2019-05-18T17:49:24.624Z,7.57
2019-05-18T17:51:50.234Z,7.37
2019-05-18T17:54:19.559Z,7.97
2019-05-18T17:57:07.550Z,7.03
2019-05-18T17:59:25.568Z,9.57
2019-05-18T18:01:54.889Z,8.70
2019-05-18T18:04:24.213Z,7.10
2019-05-18T18:06:53.565Z,8.03
2019-05-18T18:09:22.894Z,7.37
2019-05-18T18:11:52.233Z,7.97
2019-05-18T18:14:21.556Z,7.37
2019-05-18T18:16:50.878Z,8.37
2019-05-18T18:19:20.213Z,8.43
2019-05-18T18:21:49.538Z,9.80
2019-05-18T18:24:18.871Z,9.17
2019-05-18T18:26:48.190Z,8.23
2019-05-18T18:29:17.538Z,8.70
2019-05-18T18:31:46.865Z,10.70
2019-05-18T18:34:16.206Z,17.20
2019-05-18T18:36:45.544Z,8.87
2019-05-18T18:39:14.876Z,9.00
2019-05-18T18:41:44.224Z,9.20
2019-05-18T18:44:13.550Z,8.63
2019-05-18T18:46:42.945Z,8.60
2019-05-18T18:49:12.286Z,11.80
2019-05-18T18:51:41.626Z,10.70
2019-05-18T18:54:12.786Z,10.60
2019-05-18T18:57:01.088Z,10.90
2019-05-18T18:59:30.435Z,10.50
2019-05-18T19:01:59.769Z,10.13
2019-05-18T19:04:41.381Z,11.00
2019-05-18T19:07:10.714Z,10.90
2019-05-18T19:09:40.049Z,10.83
2019-05-18T19:12:09.398Z,10.73
2019-05-18T19:14:38.723Z,9.67
2019-05-18T19:17:08.070Z,10.00
2019-05-18T19:19:40.157Z,8.83
2019-05-18T19:22:13.727Z,10.03
2019-05-18T19:24:43.064Z,9.93
2019-05-18T19:27:12.408Z,10.20
2019-05-18T19:29:41.744Z,11.30
2019-05-18T19:32:11.077Z,9.40
2019-05-18T19:34:40.432Z,10.43
2019-05-18T19:37:09.775Z,9.73
2019-05-18T19:39:58.456Z,10.77
2019-05-18T19:42:35.120Z,10.10
2019-05-18T19:48:05.915Z,10.27
2019-05-18T19:50:47.693Z,12.30
2019-05-18T19:53:17.063Z,12.33
2019-05-18T19:56:05.725Z,11.47
2019-05-18T19:58:35.091Z,10.23
2019-05-18T20:01:04.447Z,9.70
2019-05-18T20:03:33.786Z,10.37
2019-05-18T20:12:07.012Z,9.27
2019-05-18T20:14:36.353Z,9.17
2019-05-18T20:17:05.717Z,8.80
2019-05-18T20:19:39.110Z,9.20
2019-05-18T20:22:15.488Z,8.50
2019-05-18T20:24:45.063Z,8.83
2019-05-18T20:27:14.382Z,8.93
2019-05-18T20:29:43.723Z,8.23
2019-05-18T20:32:13.048Z,8.80
2019-05-18T20:34:42.703Z,8.20
2019-05-18T20:37:12.311Z,8.80
2019-05-18T20:39:41.647Z,8.03
2019-05-18T20:42:10.982Z,8.40
2019-05-18T20:44:40.299Z,8.40
2019-05-18T20:47:09.630Z,7.77
2019-05-18T20:49:38.962Z,7.80
2019-05-18T20:52:08.508Z,8.17
2019-05-18T20:54:37.831Z,9.30
2019-05-18T20:57:07.166Z,8.67
2019-05-18T20:59:55.848Z,8.37
2019-05-18T21:02:25.211Z,7.77
2019-05-18T21:04:54.794Z,8.23
2019-05-18T21:07:24.118Z,7.80
2019-05-18T21:09:53.467Z,8.60
2019-05-18T21:12:34.968Z,9.80
2019-05-18T21:15:16.148Z,11.60
2019-05-18T21:17:45.481Z,12.20
2019-05-18T21:20:14.829Z,12.60
2019-05-18T21:22:44.168Z,12.70
2019-05-18T21:25:13.510Z,12.73
2019-05-18T21:27:42.859Z,13.10
2019-05-18T21:33:46.200Z,13.30
2019-05-18T21:36:27.651Z,13.67
2019-05-18T21:38:56.997Z,14.40
2019-05-18T21:41:26.346Z,13.80
2019-05-18T21:43:55.681Z,13.20
2019-05-18T21:46:44.365Z,13.30
2019-05-18T21:49:13.697Z,14.00
2019-05-18T21:52:08.271Z,13.53
2019-05-18T21:54:39.282Z,13.83
2019-05-18T21:57:20.346Z,15.27
2019-05-18T21:59:49.681Z,15.03
2019-05-18T22:02:19.023Z,14.83
2019-05-18T22:05:00.277Z,14.47
2019-05-18T22:07:29.685Z,14.30
2019-05-18T22:09:59.335Z,13.60
2019-05-18T22:12:41.308Z,14.10
2019-05-18T22:15:23.599Z,15.43
2019-05-18T22:18:23.705Z,15.20
2019-05-18T22:21:08.555Z,13.33
2019-05-18T22:23:49.680Z,13.13
2019-05-18T22:26:19.031Z,14.50
2019-05-18T22:28:48.369Z,13.40
2019-05-18T22:31:29.719Z,13.37
2019-05-18T22:33:59.051Z,13.00
2019-05-18T22:36:28.389Z,13.40
2019-05-18T22:38:57.970Z,13.23
2019-05-18T22:41:27.306Z,13.43
2019-05-18T22:43:56.648Z,12.77
2019-05-18T22:46:25.984Z,11.90
2019-05-18T22:48:55.340Z,12.33
2019-05-18T22:51:24.673Z,11.60
2019-05-18T22:53:54.081Z,11.70
2019-05-18T22:56:23.431Z,11.43
2019-05-18T22:58:52.771Z,11.43
2019-05-18T23:01:22.133Z,11.80
2019-05-18T23:03:51.855Z,10.97
2019-05-18T23:06:21.187Z,11.57
2019-05-18T23:08:50.529Z,11.87
2019-05-18T23:11:19.889Z,12.17
2019-05-18T23:13:49.208Z,11.67
2019-05-18T23:16:18.610Z,11.70
2019-05-18T23:18:56.360Z,11.23
2019-05-18T23:21:18.995Z,12.27
2019-05-18T23:23:48.346Z,11.93
2019-05-18T23:26:17.700Z,10.63
2019-05-18T23:28:47.038Z,9.93
2019-05-18T23:31:16.621Z,10.43
2019-05-18T23:33:45.958Z,11.03
2019-05-18T23:36:15.324Z,11.27
2019-05-18T23:38:44.656Z,9.40
2019-05-18T23:41:13.993Z,10.40
2019-05-18T23:43:43.422Z,9.77
2019-05-18T23:46:12.748Z,10.90
2019-05-18T23:48:42.334Z,10.43
2019-05-18T23:51:11.668Z,11.20
2019-05-18T23:53:41.001Z,11.60
2019-05-18T23:56:10.452Z,12.17
2019-05-18T23:58:39.794Z,12.30
